sensor_id;sensor_type;location;lat;lon;timestamp;P1;durP1;ratioP1;P2;durP2;ratioP2
9997;SDS011;5038;53.064;8.624;2022-11-15T00:00:01;33.43;;;29.90;;
9997;SDS011;5038;53.064;8.624;2022-11-15T00:02:49;32.33;;;29.33;;
9997;SDS011;5038;53.064;8.624;2022-11-15T00:05:36;33.10;;;29.93;;
9997;SDS011;5038;53.064;8.624;2022-11-15T00:08:22;31.10;;;28.20;;
9997;SDS011;5038;53.064;8.624;2022-11-15T00:11:11;31.83;;;28.90;;
9997;SDS011;5038;53.064;8.624;2022-11-15T00:13:58;29.50;;;26.60;;
9997;SDS011;5038;53.064;8.624;2022-11-15T00:16:46;29.47;;;26.77;;
9997;SDS011;5038;53.064;8.624;2022-11-15T00:19:33;31.10;;;28.30;;
9997;SDS011;5038;53.064;8.624;2022-11-15T00:22:20;28.97;;;25.90;;
9997;SDS011;5038;53.064;8.624;2022-11-15T00:25:06;29.83;;;26.87;;
9997;SDS011;5038;53.064;8.624;2022-11-15T00:27:56;31.13;;;28.13;;
9997;SDS011;5038;53.064;8.624;2022-11-15T00:30:43;29.47;;;26.37;;
9997;SDS011;5038;53.064;8.624;2022-11-15T00:33:29;28.17;;;25.57;;
9997;SDS011;5038;53.064;8.624;2022-11-15T00:36:17;27.37;;;24.67;;
9997;SDS011;5038;53.064;8.624;2022-11-15T00:39:05;28.77;;;25.77;;
9997;SDS011;5038;53.064;8.624;2022-11-15T00:41:52;28.50;;;25.83;;
9997;SDS011;5038;53.064;8.624;2022-11-15T00:44:40;28.00;;;25.10;;
9997;SDS011;5038;53.064;8.624;2022-11-15T00:47:27;26.93;;;24.37;;
9997;SDS011;5038;53.064;8.624;2022-11-15T00:50:13;27.63;;;24.93;;
9997;SDS011;5038;53.064;8.624;2022-11-15T00:53:00;29.43;;;26.33;;
9997;SDS011;5038;53.064;8.624;2022-11-15T00:55:46;28.60;;;25.63;;
9997;SDS011;5038;53.064;8.624;2022-11-15T00:58:33;26.10;;;23.50;;
9997;SDS011;5038;53.064;8.624;2022-11-15T01:01:20;29.33;;;26.33;;
9997;SDS011;5038;53.064;8.624;2022-11-15T01:04:07;28.50;;;25.70;;
9997;SDS011;5038;53.064;8.624;2022-11-15T01:06:54;27.77;;;25.07;;
9997;SDS011;5038;53.064;8.624;2022-11-15T01:09:40;28.53;;;25.83;;
9997;SDS011;5038;53.064;8.624;2022-11-15T01:12:27;28.90;;;25.93;;
9997;SDS011;5038;53.064;8.624;2022-11-15T01:15:13;26.40;;;23.90;;
9997;SDS011;5038;53.064;8.624;2022-11-15T01:18:01;26.70;;;24.10;;
9997;SDS011;5038;53.064;8.624;2022-11-15T01:20:47;28.33;;;25.67;;
9997;SDS011;5038;53.064;8.624;2022-11-15T01:23:34;27.20;;;24.63;;
9997;SDS011;5038;53.064;8.624;2022-11-15T01:26:21;26.83;;;24.33;;
9997;SDS011;5038;53.064;8.624;2022-11-15T01:29:09;25.90;;;23.30;;
9997;SDS011;5038;53.064;8.624;2022-11-15T01:31:55;27.10;;;24.60;;
9997;SDS011;5038;53.064;8.624;2022-11-15T01:34:43;27.63;;;25.13;;
9997;SDS011;5038;53.064;8.624;2022-11-15T01:37:30;25.90;;;23.30;;
9997;SDS011;5038;53.064;8.624;2022-11-15T01:40:17;26.83;;;24.20;;
9997;SDS011;5038;53.064;8.624;2022-11-15T01:43:19;26.30;;;23.50;;
9997;SDS011;5038;53.064;8.624;2022-11-15T01:46:11;24.30;;;21.90;;
9997;SDS011;5038;53.064;8.624;2022-11-15T01:49:10;24.90;;;22.33;;
9997;SDS011;5038;53.064;8.624;2022-11-15T01:52:02;27.80;;;25.00;;
9997;SDS011;5038;53.064;8.624;2022-11-15T01:54:53;26.40;;;23.77;;
9997;SDS011;5038;53.064;8.624;2022-11-15T01:57:42;26.57;;;23.83;;
9997;SDS011;5038;53.064;8.624;2022-11-15T02:00:33;29.27;;;26.47;;
9997;SDS011;5038;53.064;8.624;2022-11-15T02:03:20;26.60;;;23.70;;
9997;SDS011;5038;53.064;8.624;2022-11-15T02:06:11;27.93;;;25.03;;
9997;SDS011;5038;53.064;8.624;2022-11-15T02:08:59;26.93;;;24.20;;
9997;SDS011;5038;53.064;8.624;2022-11-15T02:11:47;28.70;;;25.73;;
9997;SDS011;5038;53.064;8.624;2022-11-15T02:14:37;28.20;;;25.50;;
9997;SDS011;5038;53.064;8.624;2022-11-15T02:17:30;27.93;;;25.00;;
9997;SDS011;5038;53.064;8.624;2022-11-15T02:30:25;28.70;;;25.80;;
9997;SDS011;5038;53.064;8.624;2022-11-15T02:33:22;27.63;;;24.73;;
9997;SDS011;5038;53.064;8.624;2022-11-15T02:36:18;28.80;;;25.83;;
9997;SDS011;5038;53.064;8.624;2022-11-15T02:39:17;28.03;;;25.27;;
9997;SDS011;5038;53.064;8.624;2022-11-15T02:42:12;28.60;;;25.90;;
9997;SDS011;5038;53.064;8.624;2022-11-15T02:45:17;27.40;;;24.60;;
9997;SDS011;5038;53.064;8.624;2022-11-15T02:48:10;29.80;;;26.80;;
9997;SDS011;5038;53.064;8.624;2022-11-15T02:50:58;31.00;;;27.83;;
9997;SDS011;5038;53.064;8.624;2022-11-15T02:53:45;27.30;;;24.70;;
9997;SDS011;5038;53.064;8.624;2022-11-15T02:56:31;28.40;;;25.67;;
9997;SDS011;5038;53.064;8.624;2022-11-15T02:59:21;28.20;;;25.33;;
9997;SDS011;5038;53.064;8.624;2022-11-15T03:02:25;29.67;;;26.77;;
9997;SDS011;5038;53.064;8.624;2022-11-15T03:05:25;30.00;;;27.00;;
9997;SDS011;5038;53.064;8.624;2022-11-15T03:08:20;28.67;;;25.77;;
9997;SDS011;5038;53.064;8.624;2022-11-15T03:11:15;29.53;;;26.73;;
9997;SDS011;5038;53.064;8.624;2022-11-15T03:14:06;30.03;;;27.13;;
9997;SDS011;5038;53.064;8.624;2022-11-15T03:17:01;28.93;;;26.10;;
9997;SDS011;5038;53.064;8.624;2022-11-15T03:19:54;29.63;;;26.83;;
9997;SDS011;5038;53.064;8.624;2022-11-15T03:22:46;29.60;;;26.73;;
9997;SDS011;5038;53.064;8.624;2022-11-15T03:25:34;31.50;;;28.30;;
9997;SDS011;5038;53.064;8.624;2022-11-15T03:28:25;32.20;;;29.10;;
9997;SDS011;5038;53.064;8.624;2022-11-15T03:31:18;30.03;;;27.13;;
9997;SDS011;5038;53.064;8.624;2022-11-15T03:34:34;31.30;;;28.20;;
9997;SDS011;5038;53.064;8.624;2022-11-15T03:37:27;30.60;;;27.50;;
9997;SDS011;5038;53.064;8.624;2022-11-15T03:40:20;30.00;;;27.07;;
9997;SDS011;5038;53.064;8.624;2022-11-15T03:43:13;29.13;;;26.40;;
9997;SDS011;5038;53.064;8.624;2022-11-15T03:46:08;30.00;;;27.17;;
9997;SDS011;5038;53.064;8.624;2022-11-15T03:49:07;28.17;;;25.50;;
9997;SDS011;5038;53.064;8.624;2022-11-15T03:51:56;29.80;;;27.00;;
9997;SDS011;5038;53.064;8.624;2022-11-15T03:54:50;29.20;;;26.37;;
9997;SDS011;5038;53.064;8.624;2022-11-15T03:57:40;29.67;;;26.93;;
9997;SDS011;5038;53.064;8.624;2022-11-15T04:00:26;23.37;;;21.20;;
9997;SDS011;5038;53.064;8.624;2022-11-15T04:03:14;28.23;;;25.40;;
9997;SDS011;5038;53.064;8.624;2022-11-15T04:06:00;28.57;;;25.77;;
9997;SDS011;5038;53.064;8.624;2022-11-15T04:08:47;30.30;;;27.30;;
9997;SDS011;5038;53.064;8.624;2022-11-15T04:11:34;28.97;;;25.97;;
9997;SDS011;5038;53.064;8.624;2022-11-15T04:14:22;29.90;;;27.10;;
9997;SDS011;5038;53.064;8.624;2022-11-15T04:17:09;29.47;;;26.50;;
9997;SDS011;5038;53.064;8.624;2022-11-15T04:19:56;31.37;;;28.43;;
9997;SDS011;5038;53.064;8.624;2022-11-15T04:23:01;30.00;;;26.93;;
9997;SDS011;5038;53.064;8.624;2022-11-15T04:26:07;30.83;;;27.90;;
9997;SDS011;5038;53.064;8.624;2022-11-15T04:28:56;32.23;;;29.23;;
9997;SDS011;5038;53.064;8.624;2022-11-15T04:32:01;32.63;;;29.13;;
9997;SDS011;5038;53.064;8.624;2022-11-15T04:34:48;30.07;;;27.10;;
9997;SDS011;5038;53.064;8.624;2022-11-15T04:37:35;30.37;;;27.27;;
9997;SDS011;5038;53.064;8.624;2022-11-15T04:40:21;28.70;;;26.07;;
9997;SDS011;5038;53.064;8.624;2022-11-15T04:43:08;28.03;;;25.43;;
9997;SDS011;5038;53.064;8.624;2022-11-15T04:45:55;30.40;;;27.47;;
9997;SDS011;5038;53.064;8.624;2022-11-15T04:48:42;28.27;;;25.47;;
9997;SDS011;5038;53.064;8.624;2022-11-15T04:51:29;29.57;;;26.63;;
9997;SDS011;5038;53.064;8.624;2022-11-15T04:54:16;27.93;;;25.07;;
9997;SDS011;5038;53.064;8.624;2022-11-15T04:57:02;29.20;;;26.40;;
9997;SDS011;5038;53.064;8.624;2022-11-15T04:59:49;30.17;;;27.27;;
9997;SDS011;5038;53.064;8.624;2022-11-15T05:02:36;29.97;;;27.00;;
9997;SDS011;5038;53.064;8.624;2022-11-15T05:05:41;30.43;;;27.60;;
9997;SDS011;5038;53.064;8.624;2022-11-15T05:08:28;28.67;;;25.87;;
9997;SDS011;5038;53.064;8.624;2022-11-15T05:11:15;28.63;;;26.00;;
9997;SDS011;5038;53.064;8.624;2022-11-15T05:14:02;28.43;;;25.47;;
9997;SDS011;5038;53.064;8.624;2022-11-15T05:16:48;27.33;;;24.83;;
9997;SDS011;5038;53.064;8.624;2022-11-15T05:19:35;28.40;;;25.60;;
9997;SDS011;5038;53.064;8.624;2022-11-15T05:22:23;28.17;;;25.47;;
9997;SDS011;5038;53.064;8.624;2022-11-15T05:25:10;31.73;;;28.63;;
9997;SDS011;5038;53.064;8.624;2022-11-15T05:27:56;29.47;;;26.53;;
9997;SDS011;5038;53.064;8.624;2022-11-15T05:30:43;27.87;;;25.17;;
9997;SDS011;5038;53.064;8.624;2022-11-15T05:33:30;30.27;;;27.53;;
9997;SDS011;5038;53.064;8.624;2022-11-15T05:36:18;29.90;;;27.00;;
9997;SDS011;5038;53.064;8.624;2022-11-15T05:39:12;28.70;;;25.80;;
9997;SDS011;5038;53.064;8.624;2022-11-15T05:42:00;27.60;;;25.00;;
9997;SDS011;5038;53.064;8.624;2022-11-15T05:44:50;27.00;;;24.30;;
9997;SDS011;5038;53.064;8.624;2022-11-15T05:47:37;26.10;;;23.67;;
9997;SDS011;5038;53.064;8.624;2022-11-15T05:50:24;26.83;;;24.03;;
9997;SDS011;5038;53.064;8.624;2022-11-15T05:53:12;26.87;;;24.20;;
9997;SDS011;5038;53.064;8.624;2022-11-15T05:56:02;27.10;;;24.50;;
9997;SDS011;5038;53.064;8.624;2022-11-15T05:58:51;27.50;;;24.90;;
9997;SDS011;5038;53.064;8.624;2022-11-15T06:01:43;27.17;;;24.50;;
9997;SDS011;5038;53.064;8.624;2022-11-15T06:04:30;26.97;;;24.37;;
9997;SDS011;5038;53.064;8.624;2022-11-15T06:07:16;24.87;;;22.47;;
9997;SDS011;5038;53.064;8.624;2022-11-15T06:10:03;24.90;;;22.70;;
9997;SDS011;5038;53.064;8.624;2022-11-15T06:12:57;27.27;;;24.57;;
9997;SDS011;5038;53.064;8.624;2022-11-15T06:15:44;26.80;;;24.30;;
9997;SDS011;5038;53.064;8.624;2022-11-15T06:18:31;27.60;;;25.00;;
9997;SDS011;5038;53.064;8.624;2022-11-15T06:21:19;26.80;;;24.10;;
9997;SDS011;5038;53.064;8.624;2022-11-15T06:24:06;25.97;;;23.47;;
9997;SDS011;5038;53.064;8.624;2022-11-15T06:26:53;25.17;;;22.87;;
9997;SDS011;5038;53.064;8.624;2022-11-15T06:29:41;24.87;;;22.67;;
9997;SDS011;5038;53.064;8.624;2022-11-15T06:32:28;24.53;;;22.40;;
9997;SDS011;5038;53.064;8.624;2022-11-15T06:35:16;26.57;;;24.17;;
9997;SDS011;5038;53.064;8.624;2022-11-15T06:38:03;25.73;;;23.27;;
9997;SDS011;5038;53.064;8.624;2022-11-15T06:40:51;26.37;;;23.87;;
9997;SDS011;5038;53.064;8.624;2022-11-15T06:43:38;26.40;;;23.90;;
9997;SDS011;5038;53.064;8.624;2022-11-15T06:46:27;26.20;;;23.67;;
9997;SDS011;5038;53.064;8.624;2022-11-15T06:49:14;24.37;;;22.17;;
9997;SDS011;5038;53.064;8.624;2022-11-15T06:52:01;24.80;;;22.30;;
9997;SDS011;5038;53.064;8.624;2022-11-15T06:54:48;26.37;;;23.80;;
9997;SDS011;5038;53.064;8.624;2022-11-15T06:57:35;25.77;;;23.20;;
9997;SDS011;5038;53.064;8.624;2022-11-15T07:00:22;26.37;;;23.97;;
9997;SDS011;5038;53.064;8.624;2022-11-15T07:03:10;29.67;;;26.50;;
9997;SDS011;5038;53.064;8.624;2022-11-15T07:05:57;24.90;;;22.50;;
9997;SDS011;5038;53.064;8.624;2022-11-15T07:08:50;28.00;;;24.80;;
9997;SDS011;5038;53.064;8.624;2022-11-15T07:11:37;28.00;;;25.37;;
9997;SDS011;5038;53.064;8.624;2022-11-15T07:14:23;25.27;;;22.63;;
9997;SDS011;5038;53.064;8.624;2022-11-15T07:17:10;24.37;;;22.00;;
9997;SDS011;5038;53.064;8.624;2022-11-15T07:19:58;23.70;;;21.50;;
9997;SDS011;5038;53.064;8.624;2022-11-15T07:22:45;23.33;;;21.23;;
9997;SDS011;5038;53.064;8.624;2022-11-15T07:25:32;24.30;;;22.00;;
9997;SDS011;5038;53.064;8.624;2022-11-15T07:28:19;25.30;;;22.70;;
9997;SDS011;5038;53.064;8.624;2022-11-15T07:31:08;26.60;;;23.80;;
9997;SDS011;5038;53.064;8.624;2022-11-15T07:33:55;32.43;;;24.77;;
9997;SDS011;5038;53.064;8.624;2022-11-15T07:36:43;28.60;;;25.50;;
9997;SDS011;5038;53.064;8.624;2022-11-15T07:39:30;24.90;;;22.13;;
9997;SDS011;5038;53.064;8.624;2022-11-15T07:42:16;25.63;;;23.03;;
9997;SDS011;5038;53.064;8.624;2022-11-15T07:45:20;25.20;;;22.83;;
9997;SDS011;5038;53.064;8.624;2022-11-15T07:48:10;39.93;;;30.97;;
9997;SDS011;5038;53.064;8.624;2022-11-15T07:50:57;36.07;;;27.00;;
9997;SDS011;5038;53.064;8.624;2022-11-15T07:53:45;26.00;;;23.50;;
9997;SDS011;5038;53.064;8.624;2022-11-15T07:56:31;25.23;;;22.67;;
9997;SDS011;5038;53.064;8.624;2022-11-15T07:59:18;25.00;;;21.90;;
9997;SDS011;5038;53.064;8.624;2022-11-15T08:02:05;24.23;;;22.03;;
9997;SDS011;5038;53.064;8.624;2022-11-15T08:04:52;25.80;;;23.40;;
9997;SDS011;5038;53.064;8.624;2022-11-15T08:07:39;23.50;;;21.30;;
9997;SDS011;5038;53.064;8.624;2022-11-15T08:10:27;26.47;;;24.07;;
9997;SDS011;5038;53.064;8.624;2022-11-15T08:13:14;27.03;;;24.33;;
9997;SDS011;5038;53.064;8.624;2022-11-15T08:16:01;25.10;;;22.83;;
9997;SDS011;5038;53.064;8.624;2022-11-15T08:18:50;25.90;;;23.20;;
9997;SDS011;5038;53.064;8.624;2022-11-15T08:21:36;25.07;;;22.67;;
9997;SDS011;5038;53.064;8.624;2022-11-15T08:24:23;24.93;;;22.67;;
9997;SDS011;5038;53.064;8.624;2022-11-15T08:27:11;24.60;;;22.23;;
9997;SDS011;5038;53.064;8.624;2022-11-15T08:30:00;24.87;;;22.47;;
9997;SDS011;5038;53.064;8.624;2022-11-15T08:32:47;29.90;;;26.90;;
9997;SDS011;5038;53.064;8.624;2022-11-15T08:35:34;28.07;;;25.60;;
9997;SDS011;5038;53.064;8.624;2022-11-15T08:38:20;27.00;;;24.47;;
9997;SDS011;5038;53.064;8.624;2022-11-15T08:41:09;25.73;;;23.23;;
9997;SDS011;5038;53.064;8.624;2022-11-15T08:44:00;26.40;;;22.33;;
9997;SDS011;5038;53.064;8.624;2022-11-15T08:46:47;25.53;;;23.23;;
9997;SDS011;5038;53.064;8.624;2022-11-15T08:49:34;29.07;;;26.23;;
9997;SDS011;5038;53.064;8.624;2022-11-15T08:52:20;26.73;;;24.33;;
9997;SDS011;5038;53.064;8.624;2022-11-15T08:55:07;26.30;;;23.60;;
9997;SDS011;5038;53.064;8.624;2022-11-15T08:57:56;26.30;;;23.70;;
9997;SDS011;5038;53.064;8.624;2022-11-15T09:00:44;29.17;;;23.10;;
9997;SDS011;5038;53.064;8.624;2022-11-15T09:03:31;22.53;;;20.40;;
9997;SDS011;5038;53.064;8.624;2022-11-15T09:06:18;26.63;;;24.23;;
9997;SDS011;5038;53.064;8.624;2022-11-15T09:09:04;25.50;;;23.20;;
9997;SDS011;5038;53.064;8.624;2022-11-15T09:11:50;25.73;;;23.47;;
9997;SDS011;5038;53.064;8.624;2022-11-15T09:14:45;25.57;;;23.27;;
9997;SDS011;5038;53.064;8.624;2022-11-15T09:17:33;67.57;;;32.10;;
9997;SDS011;5038;53.064;8.624;2022-11-15T09:20:19;36.30;;;32.70;;
9997;SDS011;5038;53.064;8.624;2022-11-15T09:23:06;34.93;;;31.33;;
9997;SDS011;5038;53.064;8.624;2022-11-15T09:25:57;26.67;;;24.27;;
9997;SDS011;5038;53.064;8.624;2022-11-15T09:28:45;24.90;;;22.77;;
9997;SDS011;5038;53.064;8.624;2022-11-15T09:31:31;26.27;;;23.90;;
9997;SDS011;5038;53.064;8.624;2022-11-15T09:34:19;25.90;;;23.70;;
9997;SDS011;5038;53.064;8.624;2022-11-15T09:37:06;23.53;;;21.50;;
9997;SDS011;5038;53.064;8.624;2022-11-15T09:39:53;27.70;;;25.20;;
9997;SDS011;5038;53.064;8.624;2022-11-15T09:42:44;27.80;;;25.20;;
9997;SDS011;5038;53.064;8.624;2022-11-15T09:45:50;21.87;;;19.87;;
9997;SDS011;5038;53.064;8.624;2022-11-15T09:48:50;23.13;;;20.93;;
9997;SDS011;5038;53.064;8.624;2022-11-15T09:51:38;187.63;;;42.93;;
9997;SDS011;5038;53.064;8.624;2022-11-15T09:54:16;20.97;;;18.63;;
9997;SDS011;5038;53.064;8.624;2022-11-15T09:57:11;19.27;;;17.43;;
9997;SDS011;5038;53.064;8.624;2022-11-15T09:59:49;21.30;;;16.33;;
9997;SDS011;5038;53.064;8.624;2022-11-15T10:03:07;17.77;;;16.07;;
9997;SDS011;5038;53.064;8.624;2022-11-15T10:05:39;18.00;;;16.40;;
9997;SDS011;5038;53.064;8.624;2022-11-15T10:08:16;16.77;;;14.87;;
9997;SDS011;5038;53.064;8.624;2022-11-15T10:10:55;15.10;;;13.70;;
9997;SDS011;5038;53.064;8.624;2022-11-15T10:13:45;15.00;;;13.60;;
9997;SDS011;5038;53.064;8.624;2022-11-15T10:16:20;16.80;;;15.10;;
9997;SDS011;5038;53.064;8.624;2022-11-15T10:19:05;16.80;;;15.03;;
9997;SDS011;5038;53.064;8.624;2022-11-15T10:21:43;14.67;;;13.17;;
9997;SDS011;5038;53.064;8.624;2022-11-15T10:24:22;14.70;;;13.30;;
9997;SDS011;5038;53.064;8.624;2022-11-15T10:26:54;20.30;;;13.90;;
9997;SDS011;5038;53.064;8.624;2022-11-15T10:29:24;28.43;;;16.20;;
9997;SDS011;5038;53.064;8.624;2022-11-15T10:31:52;18.17;;;14.77;;
9997;SDS011;5038;53.064;8.624;2022-11-15T10:34:22;15.90;;;13.60;;
9997;SDS011;5038;53.064;8.624;2022-11-15T10:36:54;14.83;;;13.33;;
9997;SDS011;5038;53.064;8.624;2022-11-15T10:39:25;13.70;;;12.50;;
9997;SDS011;5038;53.064;8.624;2022-11-15T10:41:53;14.23;;;12.83;;
9997;SDS011;5038;53.064;8.624;2022-11-15T10:44:23;14.07;;;12.60;;
9997;SDS011;5038;53.064;8.624;2022-11-15T10:50:06;13.10;;;11.90;;
9997;SDS011;5038;53.064;8.624;2022-11-15T10:52:52;14.30;;;12.17;;
9997;SDS011;5038;53.064;8.624;2022-11-15T10:55:26;13.83;;;12.40;;
9997;SDS011;5038;53.064;8.624;2022-11-15T10:58:03;11.73;;;10.63;;
9997;SDS011;5038;53.064;8.624;2022-11-15T11:00:34;11.53;;;10.43;;
9997;SDS011;5038;53.064;8.624;2022-11-15T11:03:05;11.57;;;10.47;;
9997;SDS011;5038;53.064;8.624;2022-11-15T11:05:47;19.33;;;11.63;;
9997;SDS011;5038;53.064;8.624;2022-11-15T11:08:22;12.43;;;11.23;;
9997;SDS011;5038;53.064;8.624;2022-11-15T11:10:56;10.93;;;9.93;;
9997;SDS011;5038;53.064;8.624;2022-11-15T11:13:30;10.37;;;9.47;;
9997;SDS011;5038;53.064;8.624;2022-11-15T11:16:01;15.70;;;11.50;;
9997;SDS011;5038;53.064;8.624;2022-11-15T11:18:49;11.60;;;10.40;;
9997;SDS011;5038;53.064;8.624;2022-11-15T11:21:36;10.00;;;9.00;;
9997;SDS011;5038;53.064;8.624;2022-11-15T11:24:12;10.30;;;9.40;;
9997;SDS011;5038;53.064;8.624;2022-11-15T11:26:49;10.50;;;9.60;;
9997;SDS011;5038;53.064;8.624;2022-11-15T11:29:31;9.57;;;8.67;;
9997;SDS011;5038;53.064;8.624;2022-11-15T11:32:11;9.83;;;8.93;;
9997;SDS011;5038;53.064;8.624;2022-11-15T11:35:02;11.43;;;8.70;;
9997;SDS011;5038;53.064;8.624;2022-11-15T11:37:37;11.20;;;10.10;;
9997;SDS011;5038;53.064;8.624;2022-11-15T11:40:20;8.20;;;7.20;;
9997;SDS011;5038;53.064;8.624;2022-11-15T11:43:00;9.90;;;7.50;;
9997;SDS011;5038;53.064;8.624;2022-11-15T11:45:44;8.53;;;7.33;;
9997;SDS011;5038;53.064;8.624;2022-11-15T11:48:28;7.60;;;6.90;;
9997;SDS011;5038;53.064;8.624;2022-11-15T11:51:10;7.67;;;6.93;;
9997;SDS011;5038;53.064;8.624;2022-11-15T11:53:46;7.10;;;6.40;;
9997;SDS011;5038;53.064;8.624;2022-11-15T11:56:23;8.20;;;7.13;;
9997;SDS011;5038;53.064;8.624;2022-11-15T11:59:00;7.23;;;6.50;;
9997;SDS011;5038;53.064;8.624;2022-11-15T12:01:40;7.37;;;6.67;;
9997;SDS011;5038;53.064;8.624;2022-11-15T12:04:14;8.30;;;6.23;;
9997;SDS011;5038;53.064;8.624;2022-11-15T12:06:47;11.80;;;10.13;;
9997;SDS011;5038;53.064;8.624;2022-11-15T12:09:21;10.97;;;8.60;;
9997;SDS011;5038;53.064;8.624;2022-11-15T12:11:55;5.77;;;5.17;;
9997;SDS011;5038;53.064;8.624;2022-11-15T12:14:31;6.40;;;5.80;;
9997;SDS011;5038;53.064;8.624;2022-11-15T12:17:04;6.57;;;5.50;;
9997;SDS011;5038;53.064;8.624;2022-11-15T12:19:32;6.13;;;5.17;;
9997;SDS011;5038;53.064;8.624;2022-11-15T12:22:03;5.60;;;5.00;;
9997;SDS011;5038;53.064;8.624;2022-11-15T12:24:38;5.77;;;4.70;;
9997;SDS011;5038;53.064;8.624;2022-11-15T12:27:13;6.30;;;5.50;;
9997;SDS011;5038;53.064;8.624;2022-11-15T12:29:53;5.53;;;4.90;;
9997;SDS011;5038;53.064;8.624;2022-11-15T12:32:26;5.60;;;5.03;;
9997;SDS011;5038;53.064;8.624;2022-11-15T12:34:56;5.20;;;4.40;;
9997;SDS011;5038;53.064;8.624;2022-11-15T12:37:32;4.70;;;4.20;;
9997;SDS011;5038;53.064;8.624;2022-11-15T12:40:22;7.20;;;6.20;;
9997;SDS011;5038;53.064;8.624;2022-11-15T12:42:59;5.87;;;4.47;;
9997;SDS011;5038;53.064;8.624;2022-11-15T12:45:40;6.27;;;4.33;;
9997;SDS011;5038;53.064;8.624;2022-11-15T12:51:13;6.43;;;4.53;;
9997;SDS011;5038;53.064;8.624;2022-11-15T12:53:41;4.70;;;4.13;;
9997;SDS011;5038;53.064;8.624;2022-11-15T12:56:17;5.80;;;4.87;;
9997;SDS011;5038;53.064;8.624;2022-11-15T12:58:51;6.70;;;4.00;;
9997;SDS011;5038;53.064;8.624;2022-11-15T13:04:29;3.87;;;3.30;;
9997;SDS011;5038;53.064;8.624;2022-11-15T13:06:59;3.87;;;3.17;;
9997;SDS011;5038;53.064;8.624;2022-11-15T13:15:36;4.23;;;3.07;;
9997;SDS011;5038;53.064;8.624;2022-11-15T13:18:32;3.70;;;2.80;;
9997;SDS011;5038;53.064;8.624;2022-11-15T13:21:17;4.80;;;2.97;;
9997;SDS011;5038;53.064;8.624;2022-11-15T13:24:10;4.30;;;2.70;;
9997;SDS011;5038;53.064;8.624;2022-11-15T13:26:43;4.90;;;2.73;;
9997;SDS011;5038;53.064;8.624;2022-11-15T13:29:14;3.87;;;2.00;;
9997;SDS011;5038;53.064;8.624;2022-11-15T13:31:44;3.83;;;2.77;;
9997;SDS011;5038;53.064;8.624;2022-11-15T13:34:25;4.10;;;2.80;;
9997;SDS011;5038;53.064;8.624;2022-11-15T13:37:27;5.83;;;3.83;;
9997;SDS011;5038;53.064;8.624;2022-11-15T13:42:49;4.60;;;2.80;;
9997;SDS011;5038;53.064;8.624;2022-11-15T13:45:18;4.87;;;2.37;;
9997;SDS011;5038;53.064;8.624;2022-11-15T13:47:56;3.40;;;2.30;;
9997;SDS011;5038;53.064;8.624;2022-11-15T13:50:27;4.20;;;2.20;;
9997;SDS011;5038;53.064;8.624;2022-11-15T13:53:00;3.37;;;2.40;;
9997;SDS011;5038;53.064;8.624;2022-11-15T13:55:30;3.37;;;2.20;;
9997;SDS011;5038;53.064;8.624;2022-11-15T13:58:00;7.00;;;4.70;;
9997;SDS011;5038;53.064;8.624;2022-11-15T14:00:33;3.10;;;2.43;;
9997;SDS011;5038;53.064;8.624;2022-11-15T14:03:10;3.30;;;2.50;;
9997;SDS011;5038;53.064;8.624;2022-11-15T14:05:44;3.40;;;2.60;;
9997;SDS011;5038;53.064;8.624;2022-11-15T14:08:28;3.13;;;2.23;;
9997;SDS011;5038;53.064;8.624;2022-11-15T14:11:07;3.60;;;2.53;;
9997;SDS011;5038;53.064;8.624;2022-11-15T14:13:39;4.13;;;2.57;;
9997;SDS011;5038;53.064;8.624;2022-11-15T14:16:17;4.00;;;2.20;;
9997;SDS011;5038;53.064;8.624;2022-11-15T14:18:48;3.40;;;2.03;;
9997;SDS011;5038;53.064;8.624;2022-11-15T14:21:19;4.00;;;2.00;;
9997;SDS011;5038;53.064;8.624;2022-11-15T14:23:47;3.17;;;2.00;;
9997;SDS011;5038;53.064;8.624;2022-11-15T14:26:27;4.50;;;2.37;;
9997;SDS011;5038;53.064;8.624;2022-11-15T14:28:56;5.40;;;2.40;;
9997;SDS011;5038;53.064;8.624;2022-11-15T14:31:24;4.40;;;2.70;;
9997;SDS011;5038;53.064;8.624;2022-11-15T14:33:52;4.17;;;2.70;;
9997;SDS011;5038;53.064;8.624;2022-11-15T14:36:22;5.73;;;3.03;;
9997;SDS011;5038;53.064;8.624;2022-11-15T14:38:50;11.20;;;8.30;;
9997;SDS011;5038;53.064;8.624;2022-11-15T14:41:21;4.40;;;3.03;;
9997;SDS011;5038;53.064;8.624;2022-11-15T14:43:50;5.53;;;2.70;;
9997;SDS011;5038;53.064;8.624;2022-11-15T14:46:19;3.67;;;2.30;;
9997;SDS011;5038;53.064;8.624;2022-11-15T14:48:47;5.40;;;2.70;;
9997;SDS011;5038;53.064;8.624;2022-11-15T14:51:16;4.03;;;2.50;;
9997;SDS011;5038;53.064;8.624;2022-11-15T14:53:46;3.57;;;2.67;;
9997;SDS011;5038;53.064;8.624;2022-11-15T14:56:14;3.23;;;2.50;;
9997;SDS011;5038;53.064;8.624;2022-11-15T14:58:43;4.37;;;2.50;;
9997;SDS011;5038;53.064;8.624;2022-11-15T15:01:14;3.60;;;2.73;;
9997;SDS011;5038;53.064;8.624;2022-11-15T15:03:46;5.73;;;2.70;;
9997;SDS011;5038;53.064;8.624;2022-11-15T15:06:14;4.90;;;2.63;;
9997;SDS011;5038;53.064;8.624;2022-11-15T15:08:44;4.17;;;3.07;;
9997;SDS011;5038;53.064;8.624;2022-11-15T15:11:16;4.97;;;3.00;;
9997;SDS011;5038;53.064;8.624;2022-11-15T15:13:48;5.47;;;3.00;;
9997;SDS011;5038;53.064;8.624;2022-11-15T15:16:16;3.83;;;2.80;;
9997;SDS011;5038;53.064;8.624;2022-11-15T15:18:44;3.80;;;2.90;;
9997;SDS011;5038;53.064;8.624;2022-11-15T15:21:17;4.10;;;3.43;;
9997;SDS011;5038;53.064;8.624;2022-11-15T15:23:48;4.70;;;2.97;;
9997;SDS011;5038;53.064;8.624;2022-11-15T15:26:17;5.30;;;3.73;;
9997;SDS011;5038;53.064;8.624;2022-11-15T15:28:45;6.33;;;3.20;;
9997;SDS011;5038;53.064;8.624;2022-11-15T15:31:14;5.17;;;3.67;;
9997;SDS011;5038;53.064;8.624;2022-11-15T15:33:43;6.40;;;3.53;;
9997;SDS011;5038;53.064;8.624;2022-11-15T15:36:11;5.93;;;3.80;;
9997;SDS011;5038;53.064;8.624;2022-11-15T15:38:40;4.17;;;3.77;;
9997;SDS011;5038;53.064;8.624;2022-11-15T15:41:09;6.03;;;3.87;;
9997;SDS011;5038;53.064;8.624;2022-11-15T15:43:40;6.07;;;4.63;;
9997;SDS011;5038;53.064;8.624;2022-11-15T15:46:09;6.67;;;5.20;;
9997;SDS011;5038;53.064;8.624;2022-11-15T15:48:39;7.27;;;5.83;;
9997;SDS011;5038;53.064;8.624;2022-11-15T15:51:07;8.90;;;5.73;;
9997;SDS011;5038;53.064;8.624;2022-11-15T15:53:45;9.33;;;7.13;;
9997;SDS011;5038;53.064;8.624;2022-11-15T15:56:13;7.70;;;7.00;;
9997;SDS011;5038;53.064;8.624;2022-11-15T15:58:42;6.23;;;5.63;;
9997;SDS011;5038;53.064;8.624;2022-11-15T16:01:10;6.67;;;6.07;;
9997;SDS011;5038;53.064;8.624;2022-11-15T16:03:39;9.20;;;8.40;;
9997;SDS011;5038;53.064;8.624;2022-11-15T16:09:04;6.30;;;5.70;;
9997;SDS011;5038;53.064;8.624;2022-11-15T16:11:41;7.00;;;5.90;;
9997;SDS011;5038;53.064;8.624;2022-11-15T16:14:11;7.43;;;6.30;;
9997;SDS011;5038;53.064;8.624;2022-11-15T16:16:40;6.57;;;5.90;;
9997;SDS011;5038;53.064;8.624;2022-11-15T16:19:08;7.23;;;6.50;;
9997;SDS011;5038;53.064;8.624;2022-11-15T16:21:37;6.57;;;5.87;;
9997;SDS011;5038;53.064;8.624;2022-11-15T16:24:05;5.63;;;5.13;;
9997;SDS011;5038;53.064;8.624;2022-11-15T16:26:34;7.50;;;6.00;;
9997;SDS011;5038;53.064;8.624;2022-11-15T16:29:03;5.83;;;5.30;;
9997;SDS011;5038;53.064;8.624;2022-11-15T16:31:34;6.53;;;5.90;;
9997;SDS011;5038;53.064;8.624;2022-11-15T16:34:02;7.40;;;6.30;;
9997;SDS011;5038;53.064;8.624;2022-11-15T16:36:32;7.03;;;6.33;;
9997;SDS011;5038;53.064;8.624;2022-11-15T16:39:01;7.97;;;7.17;;
9997;SDS011;5038;53.064;8.624;2022-11-15T16:41:30;8.10;;;7.33;;
9997;SDS011;5038;53.064;8.624;2022-11-15T16:43:59;7.63;;;6.93;;
9997;SDS011;5038;53.064;8.624;2022-11-15T16:46:27;8.03;;;6.70;;
9997;SDS011;5038;53.064;8.624;2022-11-15T16:48:57;9.77;;;6.90;;
9997;SDS011;5038;53.064;8.624;2022-11-15T16:51:25;6.60;;;5.90;;
9997;SDS011;5038;53.064;8.624;2022-11-15T16:53:53;7.50;;;6.70;;
9997;SDS011;5038;53.064;8.624;2022-11-15T16:56:22;9.87;;;8.87;;
9997;SDS011;5038;53.064;8.624;2022-11-15T16:58:52;10.60;;;9.57;;
9997;SDS011;5038;53.064;8.624;2022-11-15T17:01:22;8.13;;;7.33;;